sensor_id;sensor_type;location;lat;lon;timestamp;pressure;altitude;pressure_sealevel;temperature;humidity
55277;BME280;41136;51.478;-2.610;2022-12-24T00:01:56;99703.16;;;10.33;100.00
55277;BME280;41136;51.478;-2.610;2022-12-24T00:04:22;99696.50;;;10.82;100.00
55277;BME280;41136;51.478;-2.610;2022-12-24T00:06:47;99691.28;;;10.49;100.00
55277;BME280;41136;51.478;-2.610;2022-12-24T00:09:12;99699.95;;;10.81;100.00
55277;BME280;41136;51.478;-2.610;2022-12-24T00:11:38;99697.14;;;10.88;100.00
55277;BME280;41136;51.478;-2.610;2022-12-24T00:14:04;99705.46;;;10.70;100.00
55277;BME280;41136;51.478;-2.610;2022-12-24T00:16:29;99711.80;;;10.01;100.00
55277;BME280;41136;51.478;-2.610;2022-12-24T00:18:54;99712.14;;;9.74;100.00
55277;BME280;41136;51.478;-2.610;2022-12-24T00:21:20;99710.91;;;10.72;100.00
55277;BME280;41136;51.478;-2.610;2022-12-24T00:23:45;99710.83;;;10.69;100.00
55277;BME280;41136;51.478;-2.610;2022-12-24T00:26:11;99716.23;;;10.44;100.00
55277;BME280;41136;51.478;-2.610;2022-12-24T00:28:36;99720.09;;;9.70;100.00
55277;BME280;41136;51.478;-2.610;2022-12-24T00:31:07;99723.23;;;10.19;100.00
55277;BME280;41136;51.478;-2.610;2022-12-24T00:33:26;99730.57;;;9.97;100.00
55277;BME280;41136;51.478;-2.610;2022-12-24T00:35:52;99737.71;;;9.90;100.00
55277;BME280;41136;51.478;-2.610;2022-12-24T00:38:17;99743.00;;;10.07;100.00
55277;BME280;41136;51.478;-2.610;2022-12-24T00:40:43;99752.28;;;9.20;100.00
55277;BME280;41136;51.478;-2.610;2022-12-24T00:43:08;99758.83;;;9.07;100.00
55277;BME280;41136;51.478;-2.610;2022-12-24T00:45:33;99766.78;;;9.35;100.00
55277;BME280;41136;51.478;-2.610;2022-12-24T00:47:59;99760.90;;;9.72;100.00
55277;BME280;41136;51.478;-2.610;2022-12-24T00:50:24;99765.57;;;9.32;100.00
55277;BME280;41136;51.478;-2.610;2022-12-24T00:52:49;99763.57;;;9.78;100.00
55277;BME280;41136;51.478;-2.610;2022-12-24T00:55:15;99768.38;;;9.97;100.00
55277;BME280;41136;51.478;-2.610;2022-12-24T00:57:40;99772.53;;;9.95;100.00
55277;BME280;41136;51.478;-2.610;2022-12-24T01:00:07;99777.77;;;9.28;100.00
55277;BME280;41136;51.478;-2.610;2022-12-24T01:02:31;99777.86;;;8.69;100.00
55277;BME280;41136;51.478;-2.610;2022-12-24T01:04:56;99780.16;;;8.73;100.00
55277;BME280;41136;51.478;-2.610;2022-12-24T01:07:22;99780.73;;;9.74;100.00
55277;BME280;41136;51.478;-2.610;2022-12-24T01:09:47;99782.70;;;9.15;100.00
55277;BME280;41136;51.478;-2.610;2022-12-24T01:12:12;99774.77;;;9.78;100.00
55277;BME280;41136;51.478;-2.610;2022-12-24T01:14:38;99784.70;;;8.92;100.00
55277;BME280;41136;51.478;-2.610;2022-12-24T01:17:04;99786.26;;;9.14;100.00
55277;BME280;41136;51.478;-2.610;2022-12-24T01:19:29;99788.98;;;9.65;100.00
55277;BME280;41136;51.478;-2.610;2022-12-24T01:21:55;99788.88;;;9.97;100.00
55277;BME280;41136;51.478;-2.610;2022-12-24T01:24:20;99792.19;;;9.58;100.00
55277;BME280;41136;51.478;-2.610;2022-12-24T01:26:45;99788.64;;;9.24;100.00
55277;BME280;41136;51.478;-2.610;2022-12-24T01:29:11;99793.80;;;8.11;100.00
55277;BME280;41136;51.478;-2.610;2022-12-24T01:31:36;99802.20;;;9.04;100.00
55277;BME280;41136;51.478;-2.610;2022-12-24T01:34:02;99801.08;;;9.34;100.00
55277;BME280;41136;51.478;-2.610;2022-12-24T01:36:27;99811.46;;;8.38;100.00
55277;BME280;41136;51.478;-2.610;2022-12-24T01:38:52;99804.21;;;9.54;100.00
55277;BME280;41136;51.478;-2.610;2022-12-24T01:41:20;99811.75;;;8.83;100.00
55277;BME280;41136;51.478;-2.610;2022-12-24T01:43:42;99815.65;;;8.38;100.00
55277;BME280;41136;51.478;-2.610;2022-12-24T01:46:13;99817.23;;;8.32;100.00
55277;BME280;41136;51.478;-2.610;2022-12-24T01:48:36;99817.28;;;8.65;100.00
55277;BME280;41136;51.478;-2.610;2022-12-24T01:51:02;99820.55;;;8.25;100.00
55277;BME280;41136;51.478;-2.610;2022-12-24T01:53:24;99821.14;;;8.44;100.00
55277;BME280;41136;51.478;-2.610;2022-12-24T01:55:49;99825.44;;;8.43;100.00
55277;BME280;41136;51.478;-2.610;2022-12-24T01:58:15;99829.42;;;8.00;100.00
55277;BME280;41136;51.478;-2.610;2022-12-24T02:00:39;99824.78;;;8.36;100.00
55277;BME280;41136;51.478;-2.610;2022-12-24T02:03:05;99821.48;;;8.06;100.00
55277;BME280;41136;51.478;-2.610;2022-12-24T02:05:35;99826.44;;;8.32;100.00
55277;BME280;41136;51.478;-2.610;2022-12-24T02:07:56;99828.36;;;8.21;100.00
55277;BME280;41136;51.478;-2.610;2022-12-24T02:10:21;99845.89;;;8.29;100.00
55277;BME280;41136;51.478;-2.610;2022-12-24T02:12:47;99846.87;;;8.68;100.00
55277;BME280;41136;51.478;-2.610;2022-12-24T02:15:14;99840.69;;;9.31;100.00
55277;BME280;41136;51.478;-2.610;2022-12-24T02:17:43;99836.70;;;8.48;100.00
55277;BME280;41136;51.478;-2.610;2022-12-24T02:22:38;99846.13;;;8.86;100.00
55277;BME280;41136;51.478;-2.610;2022-12-24T02:25:06;99845.79;;;9.74;100.00
55277;BME280;41136;51.478;-2.610;2022-12-24T02:27:29;99845.48;;;9.52;100.00
55277;BME280;41136;51.478;-2.610;2022-12-24T02:29:54;99854.63;;;9.35;100.00
55277;BME280;41136;51.478;-2.610;2022-12-24T02:32:13;99858.51;;;8.72;100.00
55277;BME280;41136;51.478;-2.610;2022-12-24T02:34:38;99861.24;;;9.08;100.00
55277;BME280;41136;51.478;-2.610;2022-12-24T02:37:05;99863.75;;;8.50;100.00
55277;BME280;41136;51.478;-2.610;2022-12-24T02:39:32;99874.50;;;8.57;100.00
55277;BME280;41136;51.478;-2.610;2022-12-24T02:41:53;99878.16;;;8.25;100.00
55277;BME280;41136;51.478;-2.610;2022-12-24T02:44:19;99882.28;;;9.04;100.00
55277;BME280;41136;51.478;-2.610;2022-12-24T02:46:43;99879.96;;;9.40;100.00
55277;BME280;41136;51.478;-2.610;2022-12-24T02:49:08;99880.98;;;9.83;100.00
55277;BME280;41136;51.478;-2.610;2022-12-24T02:51:33;99883.88;;;9.25;100.00
55277;BME280;41136;51.478;-2.610;2022-12-24T02:53:58;99877.97;;;9.55;100.00
55277;BME280;41136;51.478;-2.610;2022-12-24T02:56:36;99880.69;;;9.05;100.00
55277;BME280;41136;51.478;-2.610;2022-12-24T02:59:01;99886.63;;;9.21;100.00
55277;BME280;41136;51.478;-2.610;2022-12-24T03:01:21;99890.00;;;9.29;100.00
55277;BME280;41136;51.478;-2.610;2022-12-24T03:03:52;99895.31;;;9.33;100.00
55277;BME280;41136;51.478;-2.610;2022-12-24T03:06:10;99896.42;;;9.43;100.00
55277;BME280;41136;51.478;-2.610;2022-12-24T03:08:39;99904.10;;;9.24;100.00
55277;BME280;41136;51.478;-2.610;2022-12-24T03:11:01;99901.16;;;9.85;100.00
55277;BME280;41136;51.478;-2.610;2022-12-24T03:13:23;99905.04;;;9.53;100.00
55277;BME280;41136;51.478;-2.610;2022-12-24T03:15:48;99903.81;;;9.96;100.00
55277;BME280;41136;51.478;-2.610;2022-12-24T03:18:16;99905.85;;;9.71;100.00
55277;BME280;41136;51.478;-2.610;2022-12-24T03:20:41;99915.47;;;9.47;100.00
55277;BME280;41136;51.478;-2.610;2022-12-24T03:23:04;99918.03;;;9.47;100.00
55277;BME280;41136;51.478;-2.610;2022-12-24T03:25:30;99918.03;;;9.33;100.00
55277;BME280;41136;51.478;-2.610;2022-12-24T03:27:55;99919.05;;;9.40;100.00
55277;BME280;41136;51.478;-2.610;2022-12-24T03:30:20;99923.00;;;9.26;100.00
55277;BME280;41136;51.478;-2.610;2022-12-24T03:32:48;99918.62;;;10.01;100.00
55277;BME280;41136;51.478;-2.610;2022-12-24T03:35:10;99913.31;;;9.29;100.00
55277;BME280;41136;51.478;-2.610;2022-12-24T03:37:36;99903.86;;;9.06;100.00
55277;BME280;41136;51.478;-2.610;2022-12-24T03:40:01;99901.91;;;9.16;100.00
55277;BME280;41136;51.478;-2.610;2022-12-24T03:42:26;99908.42;;;9.11;100.00
55277;BME280;41136;51.478;-2.610;2022-12-24T03:44:51;99914.27;;;9.36;100.00
55277;BME280;41136;51.478;-2.610;2022-12-24T03:47:17;99913.39;;;9.20;100.00
55277;BME280;41136;51.478;-2.610;2022-12-24T03:49:42;99903.49;;;9.03;100.00
55277;BME280;41136;51.478;-2.610;2022-12-24T03:52:07;99903.07;;;9.51;100.00
55277;BME280;41136;51.478;-2.610;2022-12-24T03:54:33;99906.80;;;9.93;100.00
55277;BME280;41136;51.478;-2.610;2022-12-24T03:56:58;99906.79;;;9.40;100.00
55277;BME280;41136;51.478;-2.610;2022-12-24T03:59:23;99906.53;;;9.59;100.00
55277;BME280;41136;51.478;-2.610;2022-12-24T04:01:49;99918.87;;;9.65;100.00
55277;BME280;41136;51.478;-2.610;2022-12-24T04:04:14;99929.26;;;10.20;100.00
55277;BME280;41136;51.478;-2.610;2022-12-24T04:06:39;99936.26;;;10.60;100.00
55277;BME280;41136;51.478;-2.610;2022-12-24T04:09:04;99935.88;;;10.36;100.00
55277;BME280;41136;51.478;-2.610;2022-12-24T04:11:30;99937.93;;;10.60;100.00
55277;BME280;41136;51.478;-2.610;2022-12-24T04:13:55;99948.58;;;10.41;100.00
55277;BME280;41136;51.478;-2.610;2022-12-24T04:16:20;99946.62;;;10.36;100.00
55277;BME280;41136;51.478;-2.610;2022-12-24T04:18:45;99946.58;;;9.90;100.00
55277;BME280;41136;51.478;-2.610;2022-12-24T04:21:11;99947.03;;;10.04;100.00
55277;BME280;41136;51.478;-2.610;2022-12-24T04:23:39;99952.48;;;10.94;100.00
55277;BME280;41136;51.478;-2.610;2022-12-24T04:26:03;99961.38;;;10.89;100.00
55277;BME280;41136;51.478;-2.610;2022-12-24T04:28:28;99957.20;;;10.54;100.00
55277;BME280;41136;51.478;-2.610;2022-12-24T04:30:57;99960.43;;;10.76;100.00
55277;BME280;41136;51.478;-2.610;2022-12-24T04:33:18;99966.45;;;10.22;100.00
55277;BME280;41136;51.478;-2.610;2022-12-24T04:35:43;99960.01;;;10.43;100.00
55277;BME280;41136;51.478;-2.610;2022-12-24T04:38:09;99959.24;;;10.87;100.00
55277;BME280;41136;51.478;-2.610;2022-12-24T04:40:33;99957.18;;;10.50;100.00
55277;BME280;41136;51.478;-2.610;2022-12-24T04:42:59;99960.10;;;10.97;100.00
55277;BME280;41136;51.478;-2.610;2022-12-24T04:45:24;99964.04;;;10.00;100.00
55277;BME280;41136;51.478;-2.610;2022-12-24T04:47:49;99964.62;;;10.12;100.00
55277;BME280;41136;51.478;-2.610;2022-12-24T04:50:15;99956.53;;;9.89;100.00
55277;BME280;41136;51.478;-2.610;2022-12-24T04:52:40;99960.86;;;9.63;100.00
55277;BME280;41136;51.478;-2.610;2022-12-24T04:55:07;99955.80;;;10.05;100.00
55277;BME280;41136;51.478;-2.610;2022-12-24T04:57:31;99961.83;;;10.19;100.00
55277;BME280;41136;51.478;-2.610;2022-12-24T04:59:56;99957.14;;;10.35;100.00
55277;BME280;41136;51.478;-2.610;2022-12-24T05:02:22;99965.07;;;10.34;100.00
55277;BME280;41136;51.478;-2.610;2022-12-24T05:04:47;99959.73;;;11.19;100.00
55277;BME280;41136;51.478;-2.610;2022-12-24T05:07:12;99963.79;;;10.37;100.00
55277;BME280;41136;51.478;-2.610;2022-12-24T05:09:38;99956.92;;;10.19;100.00
55277;BME280;41136;51.478;-2.610;2022-12-24T05:12:03;99956.15;;;10.47;100.00
55277;BME280;41136;51.478;-2.610;2022-12-24T05:14:28;99960.93;;;10.57;100.00
55277;BME280;41136;51.478;-2.610;2022-12-24T05:16:54;99961.98;;;10.10;100.00
55277;BME280;41136;51.478;-2.610;2022-12-24T05:19:19;99968.99;;;10.56;100.00
55277;BME280;41136;51.478;-2.610;2022-12-24T05:21:44;99967.45;;;10.58;100.00
55277;BME280;41136;51.478;-2.610;2022-12-24T05:24:10;99972.14;;;10.22;100.00
55277;BME280;41136;51.478;-2.610;2022-12-24T05:26:39;99966.86;;;10.78;100.00
55277;BME280;41136;51.478;-2.610;2022-12-24T05:29:02;99970.85;;;10.33;100.00
55277;BME280;41136;51.478;-2.610;2022-12-24T05:31:29;99972.33;;;10.51;100.00
55277;BME280;41136;51.478;-2.610;2022-12-24T05:33:52;99970.70;;;10.87;100.00
55277;BME280;41136;51.478;-2.610;2022-12-24T05:36:18;99970.28;;;10.23;100.00
55277;BME280;41136;51.478;-2.610;2022-12-24T05:38:43;99973.32;;;10.48;100.00
55277;BME280;41136;51.478;-2.610;2022-12-24T05:42:30;99971.09;;;10.42;100.00
55277;BME280;41136;51.478;-2.610;2022-12-24T05:44:55;99967.92;;;10.68;100.00
55277;BME280;41136;51.478;-2.610;2022-12-24T05:47:21;99969.68;;;10.26;100.00
55277;BME280;41136;51.478;-2.610;2022-12-24T05:49:46;99970.41;;;10.35;100.00
55277;BME280;41136;51.478;-2.610;2022-12-24T05:52:11;99969.83;;;11.52;100.00
55277;BME280;41136;51.478;-2.610;2022-12-24T05:54:37;99967.06;;;11.34;100.00
55277;BME280;41136;51.478;-2.610;2022-12-24T05:57:03;99967.73;;;10.53;100.00
55277;BME280;41136;51.478;-2.610;2022-12-24T05:59:28;99964.49;;;10.81;100.00
55277;BME280;41136;51.478;-2.610;2022-12-24T06:01:53;99961.77;;;10.37;100.00
55277;BME280;41136;51.478;-2.610;2022-12-24T06:04:18;99970.63;;;11.02;100.00
55277;BME280;41136;51.478;-2.610;2022-12-24T06:06:44;99974.05;;;10.52;100.00
55277;BME280;41136;51.478;-2.610;2022-12-24T06:09:09;99977.57;;;10.64;100.00
55277;BME280;41136;51.478;-2.610;2022-12-24T06:11:36;99978.34;;;10.64;100.00
55277;BME280;41136;51.478;-2.610;2022-12-24T06:14:00;99984.78;;;10.30;100.00
55277;BME280;41136;51.478;-2.610;2022-12-24T06:16:25;99997.06;;;10.58;100.00
55277;BME280;41136;51.478;-2.610;2022-12-24T06:18:51;99997.42;;;11.11;100.00
55277;BME280;41136;51.478;-2.610;2022-12-24T06:21:16;99991.52;;;10.78;100.00
55277;BME280;41136;51.478;-2.610;2022-12-24T06:23:43;99989.88;;;10.57;100.00
55277;BME280;41136;51.478;-2.610;2022-12-24T06:26:07;99997.76;;;10.30;100.00
55277;BME280;41136;51.478;-2.610;2022-12-24T06:28:33;99999.43;;;10.50;100.00
55277;BME280;41136;51.478;-2.610;2022-12-24T06:30:58;100003.49;;;10.13;100.00
55277;BME280;41136;51.478;-2.610;2022-12-24T06:33:23;100004.71;;;10.72;100.00
55277;BME280;41136;51.478;-2.610;2022-12-24T06:35:48;100007.58;;;10.92;100.00
55277;BME280;41136;51.478;-2.610;2022-12-24T06:38:14;100012.74;;;10.54;100.00
55277;BME280;41136;51.478;-2.610;2022-12-24T06:40:39;100010.91;;;10.29;100.00
55277;BME280;41136;51.478;-2.610;2022-12-24T06:43:04;100010.88;;;10.62;100.00
55277;BME280;41136;51.478;-2.610;2022-12-24T06:45:30;100009.09;;;11.03;100.00
55277;BME280;41136;51.478;-2.610;2022-12-24T06:47:55;100009.00;;;10.91;100.00
55277;BME280;41136;51.478;-2.610;2022-12-24T06:50:21;100014.94;;;10.99;100.00
55277;BME280;41136;51.478;-2.610;2022-12-24T06:52:45;100022.31;;;10.76;100.00
55277;BME280;41136;51.478;-2.610;2022-12-24T06:55:11;100023.67;;;10.41;100.00
55277;BME280;41136;51.478;-2.610;2022-12-24T06:57:36;100024.28;;;10.32;100.00
55277;BME280;41136;51.478;-2.610;2022-12-24T07:00:02;100025.89;;;10.52;100.00
55277;BME280;41136;51.478;-2.610;2022-12-24T07:02:27;100032.95;;;9.94;100.00
55277;BME280;41136;51.478;-2.610;2022-12-24T07:04:52;100033.08;;;10.24;100.00
55277;BME280;41136;51.478;-2.610;2022-12-24T07:07:17;100027.43;;;10.84;100.00
55277;BME280;41136;51.478;-2.610;2022-12-24T07:09:43;100035.29;;;10.33;100.00
55277;BME280;41136;51.478;-2.610;2022-12-24T07:12:08;100033.92;;;11.37;100.00
55277;BME280;41136;51.478;-2.610;2022-12-24T07:14:34;100036.73;;;10.81;100.00
55277;BME280;41136;51.478;-2.610;2022-12-24T07:16:59;100027.18;;;11.11;100.00
55277;BME280;41136;51.478;-2.610;2022-12-24T07:19:24;100032.61;;;10.90;100.00
55277;BME280;41136;51.478;-2.610;2022-12-24T07:21:49;100034.88;;;9.93;100.00
55277;BME280;41136;51.478;-2.610;2022-12-24T07:24:15;100035.98;;;10.54;100.00
55277;BME280;41136;51.478;-2.610;2022-12-24T07:26:40;100033.14;;;10.00;100.00
55277;BME280;41136;51.478;-2.610;2022-12-24T07:29:05;100032.40;;;10.41;100.00
55277;BME280;41136;51.478;-2.610;2022-12-24T07:31:30;100032.27;;;9.47;100.00
55277;BME280;41136;51.478;-2.610;2022-12-24T07:33:56;100036.53;;;9.72;100.00
55277;BME280;41136;51.478;-2.610;2022-12-24T07:36:21;100039.28;;;10.30;100.00
55277;BME280;41136;51.478;-2.610;2022-12-24T07:38:47;100047.64;;;10.04;100.00
55277;BME280;41136;51.478;-2.610;2022-12-24T07:41:13;100051.13;;;10.24;100.00
55277;BME280;41136;51.478;-2.610;2022-12-24T07:43:37;100045.69;;;10.02;100.00
55277;BME280;41136;51.478;-2.610;2022-12-24T07:46:03;100046.19;;;9.95;100.00
55277;BME280;41136;51.478;-2.610;2022-12-24T07:48:29;100035.84;;;9.96;100.00
55277;BME280;41136;51.478;-2.610;2022-12-24T07:50:55;100030.04;;;9.85;100.00
55277;BME280;41136;51.478;-2.610;2022-12-24T07:53:18;100044.23;;;10.10;100.00
55277;BME280;41136;51.478;-2.610;2022-12-24T07:55:44;100048.98;;;10.25;100.00
55277;BME280;41136;51.478;-2.610;2022-12-24T07:58:09;100041.83;;;10.39;100.00
55277;BME280;41136;51.478;-2.610;2022-12-24T08:00:34;100035.13;;;10.89;100.00
55277;BME280;41136;51.478;-2.610;2022-12-24T08:02:59;100032.17;;;10.81;100.00
55277;BME280;41136;51.478;-2.610;2022-12-24T08:05:25;100032.30;;;11.05;100.00
55277;BME280;41136;51.478;-2.610;2022-12-24T08:07:50;100031.54;;;11.00;100.00
55277;BME280;41136;51.478;-2.610;2022-12-24T08:10:15;100036.51;;;10.09;100.00
55277;BME280;41136;51.478;-2.610;2022-12-24T08:12:40;100047.09;;;10.20;100.00
55277;BME280;41136;51.478;-2.610;2022-12-24T08:15:06;100053.48;;;10.39;100.00
55277;BME280;41136;51.478;-2.610;2022-12-24T08:17:31;100047.58;;;10.49;100.00
55277;BME280;41136;51.478;-2.610;2022-12-24T08:19:56;100045.51;;;10.74;100.00
55277;BME280;41136;51.478;-2.610;2022-12-24T08:22:22;100039.63;;;11.05;100.00
55277;BME280;41136;51.478;-2.610;2022-12-24T08:24:47;100033.89;;;11.00;100.00
55277;BME280;41136;51.478;-2.610;2022-12-24T08:27:12;100035.20;;;10.59;100.00
55277;BME280;41136;51.478;-2.610;2022-12-24T08:29:38;100036.14;;;10.44;100.00
55277;BME280;41136;51.478;-2.610;2022-12-24T08:32:04;100043.60;;;10.23;100.00
55277;BME280;41136;51.478;-2.610;2022-12-24T08:34:29;100047.22;;;10.40;100.00
55277;BME280;41136;51.478;-2.610;2022-12-24T08:36:54;100053.47;;;10.36;100.00
55277;BME280;41136;51.478;-2.610;2022-12-24T08:39:19;100058.42;;;10.09;100.00
55277;BME280;41136;51.478;-2.610;2022-12-24T08:41:45;100050.23;;;10.28;100.00
55277;BME280;41136;51.478;-2.610;2022-12-24T08:44:10;100050.14;;;10.40;100.00
55277;BME280;41136;51.478;-2.610;2022-12-24T08:46:36;100045.46;;;10.30;100.00
55277;BME280;41136;51.478;-2.610;2022-12-24T08:49:01;100042.69;;;10.32;100.00
55277;BME280;41136;51.478;-2.610;2022-12-24T08:51:26;100049.00;;;10.65;100.00
55277;BME280;41136;51.478;-2.610;2022-12-24T08:53:51;100050.69;;;10.44;100.00
55277;BME280;41136;51.478;-2.610;2022-12-24T08:56:16;100056.60;;;9.76;100.00
55277;BME280;41136;51.478;-2.610;2022-12-24T08:58:42;100054.34;;;9.92;100.00
55277;BME280;41136;51.478;-2.610;2022-12-24T09:01:13;100054.67;;;10.18;100.00
55277;BME280;41136;51.478;-2.610;2022-12-24T09:03:32;100055.93;;;10.71;100.00
55277;BME280;41136;51.478;-2.610;2022-12-24T09:05:57;100055.34;;;9.76;100.00
55277;BME280;41136;51.478;-2.610;2022-12-24T09:08:23;100059.18;;;10.26;100.00
55277;BME280;41136;51.478;-2.610;2022-12-24T09:10:48;100063.72;;;10.27;100.00
55277;BME280;41136;51.478;-2.610;2022-12-24T09:13:14;100072.98;;;10.20;100.00
55277;BME280;41136;51.478;-2.610;2022-12-24T09:15:39;100070.24;;;10.49;100.00
55277;BME280;41136;51.478;-2.610;2022-12-24T09:18:05;100073.80;;;10.00;100.00
55277;BME280;41136;51.478;-2.610;2022-12-24T09:20:30;100074.86;;;10.35;100.00
55277;BME280;41136;51.478;-2.610;2022-12-24T09:22:56;100062.92;;;10.58;100.00
55277;BME280;41136;51.478;-2.610;2022-12-24T09:25:21;100058.40;;;9.75;100.00
55277;BME280;41136;51.478;-2.610;2022-12-24T09:27:46;100063.66;;;9.54;100.00
55277;BME280;41136;51.478;-2.610;2022-12-24T09:30:13;100054.35;;;9.92;100.00
55277;BME280;41136;51.478;-2.610;2022-12-24T09:32:37;100055.39;;;9.97;100.00
55277;BME280;41136;51.478;-2.610;2022-12-24T09:35:04;100054.20;;;10.36;100.00
55277;BME280;41136;51.478;-2.610;2022-12-24T09:37:28;100060.46;;;10.18;100.00
55277;BME280;41136;51.478;-2.610;2022-12-24T09:39:52;100064.83;;;10.41;100.00
55277;BME280;41136;51.478;-2.610;2022-12-24T09:42:26;100065.67;;;10.63;100.00
55277;BME280;41136;51.478;-2.610;2022-12-24T09:44:46;100062.72;;;10.59;100.00
55277;BME280;41136;51.478;-2.610;2022-12-24T09:47:19;100062.06;;;10.72;100.00
55277;BME280;41136;51.478;-2.610;2022-12-24T09:49:39;100066.47;;;11.02;100.00
55277;BME280;41136;51.478;-2.610;2022-12-24T09:52:05;100070.89;;;10.44;100.00
55277;BME280;41136;51.478;-2.610;2022-12-24T09:54:29;100074.49;;;10.81;100.00
55277;BME280;41136;51.478;-2.610;2022-12-24T09:56:51;100069.07;;;10.82;100.00
55277;BME280;41136;51.478;-2.610;2022-12-24T09:59:18;100064.25;;;10.66;100.00
55277;BME280;41136;51.478;-2.610;2022-12-24T10:01:41;100061.38;;;10.29;100.00
55277;BME280;41136;51.478;-2.610;2022-12-24T10:04:10;100061.35;;;10.62;100.00
55277;BME280;41136;51.478;-2.610;2022-12-24T10:06:36;100064.09;;;10.87;100.00
55277;BME280;41136;51.478;-2.610;2022-12-24T10:09:04;100067.10;;;11.20;100.00
55277;BME280;41136;51.478;-2.610;2022-12-24T10:11:26;100065.44;;;11.31;100.00
55277;BME280;41136;51.478;-2.610;2022-12-24T10:13:59;100068.65;;;11.07;100.00
55277;BME280;41136;51.478;-2.610;2022-12-24T10:16:17;100066.25;;;10.83;100.00
55277;BME280;41136;51.478;-2.610;2022-12-24T10:18:41;100068.18;;;10.76;100.00
55277;BME280;41136;51.478;-2.610;2022-12-24T10:21:09;100075.69;;;10.82;100.00
55277;BME280;41136;51.478;-2.610;2022-12-24T10:23:33;100085.94;;;10.68;100.00
55277;BME280;41136;51.478;-2.610;2022-12-24T10:26:03;100088.28;;;11.12;100.00
55277;BME280;41136;51.478;-2.610;2022-12-24T10:28:23;100088.78;;;11.48;100.00
55277;BME280;41136;51.478;-2.610;2022-12-24T10:30:48;100088.43;;;10.84;100.00
55277;BME280;41136;51.478;-2.610;2022-12-24T10:33:18;100090.40;;;10.88;100.00
55277;BME280;41136;51.478;-2.610;2022-12-24T10:35:45;100082.63;;;10.87;100.00
55277;BME280;41136;51.478;-2.610;2022-12-24T10:38:01;100086.51;;;11.07;100.00
55277;BME280;41136;51.478;-2.610;2022-12-24T10:40:31;100091.84;;;10.90;100.00
55277;BME280;41136;51.478;-2.610;2022-12-24T10:42:51;100083.65;;;10.96;100.00
55277;BME280;41136;51.478;-2.610;2022-12-24T10:45:20;100077.51;;;11.02;100.00
55277;BME280;41136;51.478;-2.610;2022-12-24T10:47:44;100082.75;;;10.99;100.00
55277;BME280;41136;51.478;-2.610;2022-12-24T10:50:14;100087.29;;;10.81;100.00
55277;BME280;41136;51.478;-2.610;2022-12-24T10:52:36;100081.14;;;11.55;100.00
55277;BME280;41136;51.478;-2.610;2022-12-24T10:55:05;100086.52;;;11.17;100.00
55277;BME280;41136;51.478;-2.610;2022-12-24T10:57:25;100083.84;;;11.56;100.00
55277;BME280;41136;51.478;-2.610;2022-12-24T10:59:52;100087.75;;;11.26;100.00
55277;BME280;41136;51.478;-2.610;2022-12-24T11:02:25;100081.60;;;11.51;100.00
55277;BME280;41136;51.478;-2.610;2022-12-24T11:04:46;100088.04;;;11.29;100.00
55277;BME280;41136;51.478;-2.610;2022-12-24T11:07:16;100088.50;;;11.06;100.00
55277;BME280;41136;51.478;-2.610;2022-12-24T11:09:34;100089.34;;;10.57;100.00
55277;BME280;41136;51.478;-2.610;2022-12-24T11:11:59;100081.55;;;11.68;100.00
55277;BME280;41136;51.478;-2.610;2022-12-24T11:14:23;100080.97;;;11.25;100.00
55277;BME280;41136;51.478;-2.610;2022-12-24T11:16:51;100090.25;;;11.17;100.00
55277;BME280;41136;51.478;-2.610;2022-12-24T11:19:17;100091.75;;;11.78;100.00
55277;BME280;41136;51.478;-2.610;2022-12-24T11:21:39;100088.55;;;11.32;100.00
55277;BME280;41136;51.478;-2.610;2022-12-24T11:24:07;100088.90;;;11.47;100.00
55277;BME280;41136;51.478;-2.610;2022-12-24T11:26:30;100083.41;;;11.81;100.00
55277;BME280;41136;51.478;-2.610;2022-12-24T11:29:04;100080.00;;;11.68;100.00
55277;BME280;41136;51.478;-2.610;2022-12-24T11:31:21;100074.27;;;11.79;100.00
55277;BME280;41136;51.478;-2.610;2022-12-24T11:33:48;100076.33;;;12.02;100.00
55277;BME280;41136;51.478;-2.610;2022-12-24T11:36:12;100068.37;;;12.68;100.00
55277;BME280;41136;51.478;-2.610;2022-12-24T11:38:38;100072.90;;;11.96;100.00
55277;BME280;41136;51.478;-2.610;2022-12-24T11:41:06;100073.20;;;12.13;100.00
55277;BME280;41136;51.478;-2.610;2022-12-24T11:43:36;100073.21;;;12.54;100.00
55277;BME280;41136;51.478;-2.610;2022-12-24T11:45:55;100070.34;;;12.58;100.00
55277;BME280;41136;51.478;-2.610;2022-12-24T11:48:26;100069.32;;;12.09;100.00
55277;BME280;41136;51.478;-2.610;2022-12-24T11:50:54;100066.31;;;12.72;100.00
55277;BME280;41136;51.478;-2.610;2022-12-24T11:53:16;100066.64;;;12.53;100.00
55277;BME280;41136;51.478;-2.610;2022-12-24T11:55:41;100059.05;;;12.11;100.00
55277;BME280;41136;51.478;-2.610;2022-12-24T11:58:04;100057.61;;;12.13;100.00
55277;BME280;41136;51.478;-2.610;2022-12-24T12:00:27;100052.29;;;12.44;100.00
55277;BME280;41136;51.478;-2.610;2022-12-24T12:02:55;100046.95;;;12.95;100.00
55277;BME280;41136;51.478;-2.610;2022-12-24T12:05:21;100052.76;;;12.72;100.00
55277;BME280;41136;51.478;-2.610;2022-12-24T12:07:46;100054.30;;;12.54;100.00
55277;BME280;41136;51.478;-2.610;2022-12-24T12:10:16;100050.00;;;12.71;100.00
55277;BME280;41136;51.478;-2.610;2022-12-24T12:12:37;100048.50;;;12.63;100.00
55277;BME280;41136;51.478;-2.610;2022-12-24T12:15:04;100050.09;;;12.52;100.00
55277;BME280;41136;51.478;-2.610;2022-12-24T12:17:30;100046.09;;;13.06;100.00
55277;BME280;41136;51.478;-2.610;2022-12-24T12:19:55;100046.38;;;12.71;100.00
55277;BME280;41136;51.478;-2.610;2022-12-24T12:22:23;100045.47;;;13.11;100.00
55277;BME280;41136;51.478;-2.610;2022-12-24T12:24:45;100044.04;;;12.77;100.00
55277;BME280;41136;51.478;-2.610;2022-12-24T12:27:16;100043.13;;;12.65;100.00
55277;BME280;41136;51.478;-2.610;2022-12-24T12:29:37;100038.51;;;13.03;100.00
55277;BME280;41136;51.478;-2.610;2022-12-24T12:32:03;100031.64;;;12.90;100.00